createdAt,value
2022-11-15T00:01:10.932Z,100661.75
2022-11-15T00:03:37.915Z,100660.03
2022-11-15T00:06:05.661Z,100661.78
2022-11-15T00:08:33.826Z,100656.53
2022-11-15T00:11:03.667Z,100655.66
2022-11-15T00:13:31.755Z,100656.59
2022-11-15T00:16:01.207Z,100661.84
2022-11-15T00:18:29.412Z,100652.22
2022-11-15T00:20:57.569Z,100661.00
2022-11-15T00:23:24.525Z,100656.63
2022-11-15T00:26:01.020Z,100658.38
2022-11-15T00:28:28.793Z,100655.75
2022-11-15T00:31:03.112Z,100656.63
2022-11-15T00:33:30.471Z,100652.28
2022-11-15T00:36:07.560Z,100647.91
2022-11-15T00:38:35.936Z,100647.91
2022-11-15T00:41:09.032Z,100651.41
2022-11-15T00:43:37.367Z,100645.34
2022-11-15T00:46:04.718Z,100646.22
2022-11-15T00:48:32.833Z,100645.34
2022-11-15T00:50:59.848Z,100647.09
2022-11-15T00:53:26.866Z,100635.72
2022-11-15T00:55:54.462Z,100637.47
2022-11-15T00:58:21.614Z,100639.25
2022-11-15T01:00:48.782Z,100633.13
2022-11-15T01:03:15.984Z,100643.63
2022-11-15T01:05:42.910Z,100634.88
2022-11-15T01:08:17.150Z,100638.41
2022-11-15T01:10:44.176Z,100634.91
2022-11-15T01:13:11.158Z,100634.06
2022-11-15T01:15:41.868Z,100630.56
2022-11-15T01:18:09.433Z,100622.66
2022-11-15T01:20:42.905Z,100627.91
2022-11-15T01:23:10.681Z,100624.44
2022-11-15T01:25:37.803Z,100625.31
2022-11-15T01:28:05.163Z,100626.19
2022-11-15T01:30:32.189Z,100622.72
2022-11-15T01:32:59.221Z,100623.63
2022-11-15T01:35:26.251Z,100620.97
2022-11-15T01:37:53.333Z,100620.13
2022-11-15T01:40:20.378Z,100621.00
2022-11-15T01:42:47.431Z,100619.25
2022-11-15T01:45:16.998Z,100622.78
2022-11-15T01:47:50.336Z,100617.53
2022-11-15T01:50:24.884Z,100616.66
2022-11-15T01:52:51.996Z,100617.53
2022-11-15T01:55:27.004Z,100611.41
2022-11-15T01:58:00.572Z,100613.16
2022-11-15T02:00:27.896Z,100615.78
2022-11-15T02:02:55.009Z,100614.91
2022-11-15T02:05:22.033Z,100607.03
2022-11-15T02:07:49.743Z,100605.25
2022-11-15T02:10:24.153Z,100601.75
2022-11-15T02:12:52.789Z,100600.88
2022-11-15T02:15:20.042Z,100603.47
2022-11-15T02:18:08.277Z,100590.34
2022-11-15T02:20:55.641Z,100592.06
2022-11-15T02:23:52.778Z,100599.97
2022-11-15T02:26:57.375Z,100608.72
2022-11-15T02:30:16.780Z,100601.69
2022-11-15T02:32:52.024Z,100603.44
2022-11-15T02:35:47.817Z,100599.94
2022-11-15T02:38:56.321Z,100590.25
2022-11-15T02:41:39.690Z,100595.53
2022-11-15T02:44:31.806Z,100590.25
2022-11-15T02:47:15.107Z,100584.09
2022-11-15T02:49:58.247Z,100585.88
2022-11-15T02:52:28.999Z,100577.97
2022-11-15T02:54:59.299Z,100578.81
2022-11-15T02:57:54.140Z,100581.44
2022-11-15T03:00:22.639Z,100569.16
2022-11-15T03:03:02.497Z,100563.03
2022-11-15T03:06:06.931Z,100564.75
2022-11-15T03:08:48.206Z,100560.38
2022-11-15T03:11:19.511Z,100559.47
2022-11-15T03:14:08.017Z,100554.22
2022-11-15T03:16:43.641Z,100547.16
2022-11-15T03:19:23.471Z,100560.31
2022-11-15T03:21:52.434Z,100560.31
2022-11-15T03:24:25.801Z,100561.19
2022-11-15T03:26:56.371Z,100551.53
2022-11-15T03:29:42.323Z,100555.03
2022-11-15T03:32:24.636Z,100561.13
2022-11-15T03:35:23.192Z,100559.38
2022-11-15T03:38:31.111Z,100563.75
2022-11-15T03:41:07.835Z,100558.47
2022-11-15T03:43:53.936Z,100559.28
2022-11-15T03:46:49.118Z,100562.78
2022-11-15T03:49:32.142Z,100568.94
2022-11-15T03:52:00.228Z,100565.44
2022-11-15T03:54:27.247Z,100563.69
2022-11-15T03:56:54.396Z,100561.88
2022-11-15T03:59:21.552Z,100558.38
2022-11-15T04:01:48.761Z,100558.38
2022-11-15T04:04:15.826Z,100551.34
2022-11-15T04:06:42.920Z,100559.25
2022-11-15T04:09:09.906Z,100559.28
2022-11-15T04:11:36.885Z,100551.38
2022-11-15T04:14:03.916Z,100558.41
2022-11-15T04:16:30.899Z,100555.78
2022-11-15T04:19:16.594Z,100551.38
2022-11-15T04:22:02.247Z,100554.03
2022-11-15T04:24:29.326Z,100558.44
2022-11-15T04:26:56.593Z,100555.78
2022-11-15T04:29:35.655Z,100554.91
2022-11-15T04:32:07.845Z,100559.28
2022-11-15T04:34:35.360Z,100557.53
2022-11-15T04:37:14.709Z,100556.63
2022-11-15T04:39:42.542Z,100559.28
2022-11-15T04:42:10.138Z,100557.50
2022-11-15T04:44:37.312Z,100561.00
2022-11-15T04:47:04.493Z,100563.63
2022-11-15T04:49:31.623Z,100559.25
2022-11-15T04:51:58.677Z,100559.25
2022-11-15T04:54:25.733Z,100559.25
2022-11-15T04:56:52.816Z,100553.09
2022-11-15T04:59:35.890Z,100560.13
2022-11-15T05:02:11.663Z,100554.84
2022-11-15T05:04:38.656Z,100553.09
2022-11-15T05:07:05.659Z,100555.69
2022-11-15T05:09:32.835Z,100546.94
2022-11-15T05:11:59.779Z,100556.56
2022-11-15T05:14:26.773Z,100555.69
2022-11-15T05:16:53.779Z,100553.94
2022-11-15T05:19:20.821Z,100555.69
2022-11-15T05:21:48.744Z,100547.78
2022-11-15T05:24:15.718Z,100539.00
2022-11-15T05:26:42.775Z,100541.63
2022-11-15T05:29:12.141Z,100533.72
2022-11-15T05:31:42.489Z,100532.84
2022-11-15T05:34:09.520Z,100537.22
2022-11-15T05:36:41.983Z,100534.59
2022-11-15T05:39:10.155Z,100533.72
2022-11-15T05:41:44.419Z,100537.22
2022-11-15T05:44:15.392Z,100538.09
2022-11-15T05:46:44.154Z,100549.50
2022-11-15T05:49:16.768Z,100557.41
2022-11-15T05:51:47.369Z,100556.53
2022-11-15T05:54:15.977Z,100554.78
2022-11-15T05:56:43.877Z,100550.38
2022-11-15T05:59:12.301Z,100556.53
2022-11-15T06:01:40.420Z,100560.91
2022-11-15T06:04:07.820Z,100562.66
2022-11-15T06:06:34.857Z,100560.03
2022-11-15T06:09:01.979Z,100553.00
2022-11-15T06:11:29.074Z,100563.56
2022-11-15T06:13:57.047Z,100560.94
2022-11-15T06:16:24.197Z,100556.53
2022-11-15T06:18:51.159Z,100564.44
2022-11-15T06:21:18.225Z,100568.81
2022-11-15T06:23:45.277Z,100558.28
2022-11-15T06:26:12.319Z,100573.19
2022-11-15T06:28:39.424Z,100563.53
2022-11-15T06:31:14.598Z,100572.34
2022-11-15T06:33:41.840Z,100578.50
2022-11-15T06:36:17.536Z,100571.47
2022-11-15T06:38:48.416Z,100571.47
2022-11-15T06:41:15.974Z,100577.63
2022-11-15T06:43:43.195Z,100572.38
2022-11-15T06:46:10.955Z,100578.53
2022-11-15T06:48:38.182Z,100581.13
2022-11-15T06:51:06.128Z,100575.00
2022-11-15T06:53:34.216Z,100583.81
2022-11-15T06:56:06.878Z,100579.44
2022-11-15T06:58:34.724Z,100586.44
2022-11-15T07:01:06.424Z,100596.97
2022-11-15T07:03:36.617Z,100600.47
2022-11-15T07:06:07.569Z,100593.50
2022-11-15T07:08:35.631Z,100589.94
2022-11-15T07:11:06.505Z,100595.22
2022-11-15T07:13:36.081Z,100596.97
2022-11-15T07:16:06.819Z,100604.88
2022-11-15T07:18:39.267Z,100605.78
2022-11-15T07:21:11.917Z,100613.66
2022-11-15T07:23:40.294Z,100605.75
2022-11-15T07:26:08.791Z,100608.38
2022-11-15T07:28:36.721Z,100601.34
2022-11-15T07:31:09.623Z,100609.22
2022-11-15T07:33:37.447Z,100613.63
2022-11-15T07:36:07.379Z,100619.78
2022-11-15T07:38:42.255Z,100616.25
2022-11-15T07:41:09.747Z,100615.38
2022-11-15T07:43:37.102Z,100610.09
2022-11-15T07:46:10.459Z,100601.31
2022-11-15T07:48:45.377Z,100598.69
2022-11-15T07:51:15.551Z,100597.84
2022-11-15T07:53:44.421Z,100596.97
2022-11-15T07:56:11.725Z,100594.31
2022-11-15T07:58:39.035Z,100596.03
2022-11-15T08:01:09.010Z,100609.19
2022-11-15T08:03:36.931Z,100604.78
2022-11-15T08:06:04.423Z,100610.94
2022-11-15T08:08:31.468Z,100605.69
2022-11-15T08:11:03.187Z,100613.59
2022-11-15T08:13:30.727Z,100620.63
2022-11-15T08:16:03.006Z,100622.38
2022-11-15T08:18:30.212Z,100625.03
2022-11-15T08:21:01.673Z,100618.91
2022-11-15T08:23:29.687Z,100611.88
2022-11-15T08:26:07.769Z,100609.22
2022-11-15T08:28:34.780Z,100615.38
2022-11-15T08:31:02.410Z,100605.72
2022-11-15T08:33:30.384Z,100591.69
2022-11-15T08:35:59.377Z,100588.13
2022-11-15T08:38:26.887Z,100585.44
2022-11-15T08:41:01.261Z,100579.28
2022-11-15T08:43:28.442Z,100588.03
2022-11-15T08:45:58.442Z,100589.72
2022-11-15T08:48:25.705Z,100582.63
2022-11-15T08:50:57.364Z,100570.25
2022-11-15T08:53:25.001Z,100571.97
2022-11-15T08:55:52.213Z,100571.03
2022-11-15T08:58:19.350Z,100578.06
2022-11-15T09:00:46.521Z,100570.09
2022-11-15T09:03:13.643Z,100569.25
2022-11-15T09:05:40.852Z,100565.72
2022-11-15T09:08:32.446Z,100558.69
2022-11-15T09:10:55.112Z,100556.91
2022-11-15T09:13:22.680Z,100553.38
2022-11-15T09:15:49.818Z,100542.78
2022-11-15T09:18:16.965Z,100538.34
2022-11-15T09:20:44.011Z,100535.66
2022-11-15T09:23:11.308Z,100534.72
2022-11-15T09:25:38.445Z,100536.44
2022-11-15T09:28:08.821Z,100533.81
2022-11-15T09:30:35.872Z,100532.84
2022-11-15T09:33:12.088Z,100528.38
2022-11-15T09:35:39.544Z,100526.59
2022-11-15T09:38:06.638Z,100523.94
2022-11-15T09:40:36.936Z,100523.97
2022-11-15T09:43:51.703Z,100523.97
2022-11-15T09:46:59.081Z,100524.91
2022-11-15T09:49:26.990Z,100521.41
2022-11-15T09:51:55.603Z,100524.09
2022-11-15T09:57:33.614Z,100514.47
2022-11-15T10:00:45.169Z,100504.78
2022-11-15T10:03:34.736Z,100507.38
2022-11-15T10:06:05.784Z,100513.50
2022-11-15T10:08:55.258Z,100508.16
2022-11-15T10:11:42.236Z,100507.22
2022-11-15T10:14:18.936Z,100500.22
2022-11-15T10:17:13.293Z,100508.00
2022-11-15T10:20:16.330Z,100503.50
2022-11-15T10:22:51.632Z,100501.72
2022-11-15T10:25:33.737Z,100503.47
2022-11-15T10:28:19.106Z,100485.81
2022-11-15T10:30:50.512Z,100495.47
2022-11-15T10:33:40.241Z,100487.50
2022-11-15T10:36:10.348Z,100487.53
2022-11-15T10:38:49.524Z,100484.91
2022-11-15T10:41:22.474Z,100484.16
2022-11-15T10:44:17.567Z,100468.34
2022-11-15T10:46:57.689Z,100457.78
2022-11-15T10:49:31.125Z,100452.50
2022-11-15T10:52:03.895Z,100452.44
2022-11-15T10:55:05.140Z,100456.78
2022-11-15T10:57:38.599Z,100455.84
2022-11-15T11:00:28.013Z,100450.50
2022-11-15T11:02:59.386Z,100442.53
2022-11-15T11:05:42.304Z,100453.91
2022-11-15T11:08:15.467Z,100445.03
2022-11-15T11:11:00.239Z,100440.72
2022-11-15T11:13:40.834Z,100431.91
2022-11-15T11:16:41.789Z,100428.44
2022-11-15T11:20:02.896Z,100416.06
2022-11-15T11:22:56.033Z,100413.28
2022-11-15T11:25:36.825Z,100401.66
2022-11-15T11:28:27.903Z,100395.41
2022-11-15T11:31:12.870Z,100386.50
2022-11-15T11:34:29.633Z,100391.69
2022-11-15T11:37:15.150Z,100379.06
2022-11-15T11:40:22.341Z,100376.25
2022-11-15T11:43:19.896Z,100371.66
2022-11-15T11:46:28.409Z,100363.53
2022-11-15T11:49:11.051Z,100358.16
2022-11-15T11:51:46.963Z,100345.75
2022-11-15T11:54:56.063Z,100342.94
2022-11-15T11:57:43.704Z,100345.59
2022-11-15T12:00:28.573Z,100336.75
2022-11-15T12:03:14.342Z,100330.63
2022-11-15T12:05:57.779Z,100327.00
2022-11-15T12:08:48.403Z,100321.78
2022-11-15T12:11:38.245Z,100314.78
2022-11-15T12:14:17.771Z,100320.06
2022-11-15T12:16:44.885Z,100313.88
2022-11-15T12:19:13.157Z,100313.72
2022-11-15T12:22:07.158Z,100306.53
2022-11-15T12:24:41.923Z,100300.31
2022-11-15T12:27:40.448Z,100288.81
2022-11-15T12:30:38.238Z,100287.97
2022-11-15T12:33:05.279Z,100287.09
2022-11-15T12:35:43.067Z,100278.34
2022-11-15T12:38:34.190Z,100277.63
2022-11-15T12:41:18.355Z,100283.84
2022-11-15T12:43:48.243Z,100272.44
2022-11-15T12:46:41.651Z,100269.81
2022-11-15T12:49:28.656Z,100262.75
2022-11-15T12:51:58.644Z,100260.94
2022-11-15T12:54:25.638Z,100244.97
2022-11-15T12:57:04.839Z,100246.69
2022-11-15T13:00:02.940Z,100243.09
2022-11-15T13:02:42.665Z,100233.34
2022-11-15T13:05:24.341Z,100228.91
2022-11-15T13:07:51.239Z,100221.84
2022-11-15T13:10:26.572Z,100220.88
2022-11-15T13:12:58.945Z,100217.25
2022-11-15T13:15:42.561Z,100209.25
2022-11-15T13:18:46.575Z,100204.84
2022-11-15T13:21:43.518Z,100196.91
2022-11-15T13:24:17.475Z,100188.88
2022-11-15T13:26:44.790Z,100188.84
2022-11-15T13:29:20.997Z,100187.09
2022-11-15T13:31:49.464Z,100186.19
2022-11-15T13:34:49.797Z,100176.50
2022-11-15T13:37:30.901Z,100166.81
2022-11-15T13:40:25.568Z,100162.47
2022-11-15T13:42:52.659Z,100164.44
2022-11-15T13:45:21.085Z,100158.38
2022-11-15T13:47:58.931Z,100147.13
2022-11-15T13:50:35.350Z,100146.34
2022-11-15T13:53:08.465Z,100132.34
2022-11-15T13:55:35.788Z,100137.75
2022-11-15T13:58:07.355Z,100133.38
2022-11-15T14:00:46.424Z,100131.78
2022-11-15T14:03:34.235Z,100123.13
2022-11-15T14:06:16.285Z,100127.53
2022-11-15T14:09:08.562Z,100122.25
2022-11-15T14:11:36.319Z,100110.84
2022-11-15T14:14:08.916Z,100113.44
2022-11-15T14:16:46.150Z,100107.38
2022-11-15T14:19:22.261Z,100095.16
2022-11-15T14:22:29.294Z,100099.63
2022-11-15T14:25:22.479Z,100089.97
2022-11-15T14:28:09.968Z,100091.78
2022-11-15T14:30:37.570Z,100088.38
2022-11-15T14:33:36.935Z,100076.06
2022-11-15T14:36:12.485Z,100057.66
2022-11-15T14:38:40.069Z,100059.47
2022-11-15T14:41:12.572Z,100062.06
2022-11-15T14:43:39.641Z,100060.38
2022-11-15T14:46:06.701Z,100059.53
2022-11-15T14:48:34.231Z,100046.44
2022-11-15T14:51:01.590Z,100048.25
2022-11-15T14:53:28.689Z,100037.78
2022-11-15T14:55:55.754Z,100021.09
2022-11-15T14:58:22.783Z,100027.25
2022-11-15T15:00:49.921Z,100022.00
2022-11-15T15:03:17.045Z,100019.41
2022-11-15T15:05:45.514Z,100015.91
2022-11-15T15:08:13.083Z,100015.09
2022-11-15T15:10:46.164Z,100005.47
2022-11-15T15:13:23.148Z,100006.38
2022-11-15T15:15:52.454Z,99995.88
2022-11-15T15:18:21.009Z,99991.56
2022-11-15T15:21:01.152Z,99991.56
2022-11-15T15:23:31.745Z,99977.50
2022-11-15T15:25:59.363Z,99984.59
2022-11-15T15:28:30.011Z,99980.28
2022-11-15T15:31:01.230Z,99975.06
2022-11-15T15:33:28.271Z,99976.00
2022-11-15T15:35:55.533Z,99971.56
2022-11-15T15:38:22.705Z,99974.25
2022-11-15T15:40:51.717Z,99964.69
2022-11-15T15:43:19.082Z,99966.41
2022-11-15T15:45:46.429Z,99971.75
2022-11-15T15:48:18.254Z,99967.34
2022-11-15T15:50:46.161Z,99980.53
2022-11-15T15:53:14.238Z,99972.66
2022-11-15T15:55:41.793Z,99970.00
2022-11-15T15:58:09.446Z,99965.72
2022-11-15T16:00:37.087Z,99970.13
2022-11-15T16:03:07.265Z,99971.00
2022-11-15T16:05:34.442Z,99961.34
2022-11-15T16:08:01.535Z,99961.31
2022-11-15T16:10:35.544Z,99964.91
2022-11-15T16:13:02.593Z,99968.41
2022-11-15T16:15:32.759Z,99973.78
2022-11-15T16:18:04.746Z,99968.56
2022-11-15T16:20:45.397Z,99968.69
2022-11-15T16:23:18.855Z,99970.59
2022-11-15T16:25:56.464Z,99975.94
2022-11-15T16:28:31.425Z,99972.56
2022-11-15T16:31:12.298Z,99967.38
2022-11-15T16:33:40.676Z,99977.19
2022-11-15T16:36:24.509Z,99970.25
2022-11-15T16:38:54.368Z,99965.97
2022-11-15T16:41:21.388Z,99967.81
2022-11-15T16:43:51.819Z,99967.88
2022-11-15T16:46:29.273Z,99970.59
2022-11-15T16:48:56.486Z,99962.75
2022-11-15T16:51:24.033Z,99955.78
2022-11-15T16:53:51.308Z,99959.28
2022-11-15T16:56:20.900Z,99959.34
2022-11-15T16:58:48.126Z,99958.53
2022-11-15T17:01:36.311Z,99960.31
2022-11-15T17:04:12.949Z,99960.41
2022-11-15T17:06:41.660Z,99963.94
2022-11-15T17:09:17.746Z,99963.94
2022-11-15T17:11:45.362Z,99963.09
2022-11-15T17:14:13.435Z,99963.13
2022-11-15T17:16:42.561Z,99955.28
2022-11-15T17:19:20.749Z,99950.88
2022-11-15T17:21:51.834Z,99949.19
2022-11-15T17:24:21.046Z,99946.63
2022-11-15T17:26:48.301Z,99941.34
2022-11-15T17:29:15.283Z,99947.53
2022-11-15T17:31:44.574Z,99944.03
2022-11-15T17:34:11.538Z,99940.59
2022-11-15T17:36:39.192Z,99937.13
2022-11-15T17:39:06.314Z,99931.06
2022-11-15T17:41:33.397Z,99930.19
2022-11-15T17:44:03.619Z,99939.00
2022-11-15T17:46:31.239Z,99932.88
2022-11-15T17:48:58.527Z,99932.88
2022-11-15T17:51:25.850Z,99922.38
2022-11-15T17:53:53.417Z,99920.69
2022-11-15T17:56:23.387Z,99928.63
2022-11-15T17:58:55.565Z,99934.78
2022-11-15T18:01:30.835Z,99933.06
2022-11-15T18:04:02.225Z,99927.78
2022-11-15T18:06:33.375Z,99919.88
2022-11-15T18:09:00.847Z,99921.63
2022-11-15T18:11:41.407Z,99913.69
2022-11-15T18:14:15.281Z,99909.31
2022-11-15T18:16:42.718Z,99911.91
2022-11-15T18:19:13.828Z,99912.81
2022-11-15T18:21:57.869Z,99909.31
2022-11-15T18:24:36.663Z,99904.94
2022-11-15T18:27:06.413Z,99900.53
2022-11-15T18:29:37.558Z,99900.56
2022-11-15T18:32:12.535Z,99902.31
2022-11-15T18:34:39.709Z,99899.66
2022-11-15T18:37:07.113Z,99889.97
2022-11-15T18:39:34.102Z,99889.09
2022-11-15T18:42:01.383Z,99883.81
2022-11-15T18:44:31.769Z,99880.28
2022-11-15T18:46:58.852Z,99883.75
2022-11-15T18:49:28.587Z,99885.47
2022-11-15T18:51:57.010Z,99887.19
2022-11-15T18:54:28.267Z,99880.13
2022-11-15T18:56:57.946Z,99888.91
2022-11-15T18:59:27.905Z,99883.66
2022-11-15T19:01:56.043Z,99884.47
2022-11-15T19:04:23.465Z,99888.84
2022-11-15T19:06:51.318Z,99887.06
2022-11-15T19:09:19.700Z,99881.72
2022-11-15T19:11:51.476Z,99880.78
2022-11-15T19:14:19.800Z,99873.72
2022-11-15T19:16:50.406Z,99873.63
2022-11-15T19:19:20.839Z,99868.41
2022-11-15T19:21:48.675Z,99862.22
2022-11-15T19:24:16.013Z,99867.50
2022-11-15T19:26:47.016Z,99856.06
2022-11-15T19:29:18.283Z,99858.72
2022-11-15T19:31:47.678Z,99857.81
2022-11-15T19:34:14.836Z,99853.47
2022-11-15T19:36:45.063Z,99851.69
2022-11-15T19:39:14.984Z,99853.44
2022-11-15T19:41:44.159Z,99848.84
2022-11-15T19:44:13.337Z,99847.88
2022-11-15T19:46:41.508Z,99847.88
2022-11-15T19:49:10.987Z,99849.72
2022-11-15T19:51:39.500Z,99851.38
2022-11-15T19:54:08.814Z,99848.84
2022-11-15T19:56:36.728Z,99843.56
2022-11-15T19:59:05.291Z,99852.31
2022-11-15T20:01:39.236Z,99840.88
2022-11-15T20:04:08.120Z,99838.25
2022-11-15T20:06:39.783Z,99843.44
2022-11-15T20:09:07.224Z,99840.84
2022-11-15T20:11:34.513Z,99832.94
2022-11-15T20:14:02.329Z,99825.81
2022-11-15T20:16:29.828Z,99835.47
2022-11-15T20:18:57.148Z,99823.09
2022-11-15T20:21:24.437Z,99821.38
2022-11-15T20:23:51.977Z,99831.00
2022-11-15T20:26:22.488Z,99821.28
2022-11-15T20:28:49.925Z,99823.09
2022-11-15T20:31:17.665Z,99817.84
2022-11-15T20:33:45.323Z,99812.56
2022-11-15T20:36:15.668Z,99817.84
2022-11-15T20:38:44.041Z,99811.69
2022-11-15T20:41:12.820Z,99811.69
2022-11-15T20:43:43.510Z,99811.69
2022-11-15T20:46:12.640Z,99811.69
2022-11-15T20:48:40.376Z,99816.97
2022-11-15T20:51:15.246Z,99801.16
2022-11-15T20:53:43.224Z,99798.50
2022-11-15T20:56:19.319Z,99802.00
2022-11-15T20:58:47.541Z,99802.00
2022-11-15T21:01:16.335Z,99801.94
2022-11-15T21:03:44.084Z,99790.53
2022-11-15T21:06:11.805Z,99788.75
2022-11-15T21:08:57.553Z,99786.13
2022-11-15T21:11:43.941Z,99790.53
2022-11-15T21:14:11.101Z,99782.66
2022-11-15T21:16:39.030Z,99779.13
2022-11-15T21:19:06.771Z,99781.72
2022-11-15T21:21:36.171Z,99777.34
2022-11-15T21:24:08.950Z,99779.06
2022-11-15T21:26:37.252Z,99779.06
2022-11-15T21:29:04.951Z,99776.44
2022-11-15T21:31:32.319Z,99778.22
2022-11-15T21:34:02.740Z,99773.78
2022-11-15T21:36:30.404Z,99764.13
2022-11-15T21:38:57.472Z,99770.22
2022-11-15T21:41:24.568Z,99764.03
2022-11-15T21:43:51.553Z,99750.84
2022-11-15T21:46:21.528Z,99753.44
2022-11-15T21:48:48.497Z,99750.81
2022-11-15T21:51:15.563Z,99753.41
2022-11-15T21:53:42.818Z,99746.41
2022-11-15T21:56:11.935Z,99749.88
2022-11-15T21:58:39.772Z,99738.44
2022-11-15T22:01:26.658Z,99736.69
2022-11-15T22:03:54.057Z,99738.44
2022-11-15T22:06:21.155Z,99734.91
2022-11-15T22:08:48.200Z,99729.66
2022-11-15T22:11:15.289Z,99739.28
2022-11-15T22:13:42.783Z,99726.97
2022-11-15T22:16:10.741Z,99730.41
2022-11-15T22:18:38.483Z,99721.63
2022-11-15T22:21:18.544Z,99724.28
2022-11-15T22:23:46.146Z,99717.31
2022-11-15T22:26:23.159Z,99727.81
2022-11-15T22:28:50.848Z,99713.78
2022-11-15T22:31:18.459Z,99712.00
2022-11-15T22:33:45.603Z,99700.59
2022-11-15T22:36:13.161Z,99704.94
2022-11-15T22:38:40.513Z,99697.09
2022-11-15T22:41:08.605Z,99702.31
2022-11-15T22:43:35.927Z,99703.19
2022-11-15T22:46:04.409Z,99696.19
2022-11-15T22:48:36.008Z,99697.94
2022-11-15T22:51:04.219Z,99694.44
2022-11-15T22:53:31.388Z,99683.97
2022-11-15T22:56:06.432Z,99692.75
2022-11-15T22:58:34.098Z,99692.75
2022-11-15T23:01:04.342Z,99686.59
2022-11-15T23:03:33.465Z,99689.22
2022-11-15T23:06:06.568Z,99692.72
2022-11-15T23:08:33.982Z,99693.63
2022-11-15T23:11:21.908Z,99689.22
2022-11-15T23:13:52.130Z,99689.22
2022-11-15T23:16:26.097Z,99685.72
2022-11-15T23:18:58.822Z,99690.09
2022-11-15T23:21:50.255Z,99682.16
2022-11-15T23:24:18.282Z,99689.19
2022-11-15T23:26:47.803Z,99684.75
2022-11-15T23:29:17.475Z,99679.50
2022-11-15T23:32:03.751Z,99680.34
2022-11-15T23:34:32.147Z,99690.03
2022-11-15T23:36:59.881Z,99679.53
2022-11-15T23:39:27.336Z,99678.59
2022-11-15T23:41:54.644Z,99689.09
2022-11-15T23:44:21.892Z,99681.13
2022-11-15T23:46:49.044Z,99676.72
2022-11-15T23:49:16.080Z,99682.00
2022-11-15T23:51:43.075Z,99669.72
2022-11-15T23:54:10.737Z,99677.63
2022-11-15T23:56:37.934Z,99667.09
2022-11-15T23:59:05.618Z,99666.22
